Time;durP1;ratioP1;P1;durP2;ratioP2;P2;SDS_P1;SDS_P2;PMS_P1;PMS_P2;Temp;Humidity;BMP_temperature;BMP_pressure;BME280_temperature;BME280_humidity;BME280_pressure;Samples;Min_cycle;Max_cycle;Signal;HPM_P1;HPM_P2
2023/11/01 00:01:42;;;;;;;10.25;2.65;;;11.80;99.90;;;;;;5032570;28;20046;-37
2023/11/01 00:04:08;;;;;;;17.70;3.83;;;11.80;99.90;;;;;;5032508;28;20083;-36
2023/11/01 00:06:34;;;;;;;6.70;2.50;;;11.80;99.90;;;;;;5032797;28;20026;-36
2023/11/01 00:08:59;;;;;;;22.20;3.30;;;11.90;99.90;;;;;;5032747;28;20104;-36
2023/11/01 00:11:25;;;;;;;8.57;2.33;;;11.90;99.90;;;;;;5032390;28;20029;-36
2023/11/01 00:13:51;;;;;;;10.27;2.53;;;11.90;99.90;;;;;;5032456;28;20026;-36
2023/11/01 00:16:16;;;;;;;6.88;2.30;;;11.90;99.90;;;;;;5032706;28;20362;-36
2023/11/01 00:18:42;;;;;;;5.88;2.53;;;11.90;99.90;;;;;;5032339;28;20025;-36
2023/11/01 00:21:08;;;;;;;2.63;2.30;;;11.90;99.90;;;;;;5032649;28;20588;-36
2023/11/01 00:23:34;;;;;;;3.92;2.60;;;11.90;99.90;;;;;;5032618;28;20382;-35
2023/11/01 00:25:59;;;;;;;12.65;2.75;;;12.00;99.90;;;;;;5032297;28;20394;-36
2023/11/01 00:28:27;;;;;;;6.63;2.95;;;12.00;99.90;;;;;;5032311;28;20030;-36
2023/11/01 00:30:52;;;;;;;6.90;2.22;;;12.00;99.90;;;;;;5032333;28;20047;-38
2023/11/01 00:33:18;;;;;;;9.75;2.45;;;12.00;99.90;;;;;;5032173;28;20116;-36
2023/11/01 00:35:44;;;;;;;9.50;2.88;;;12.00;99.90;;;;;;5014993;28;20056;-37
2023/11/01 00:38:10;;;;;;;6.82;2.67;;;12.00;99.90;;;;;;5032094;28;20492;-36
2023/11/01 00:40:35;;;;;;;5.22;3.05;;;12.00;99.90;;;;;;5032202;28;20025;-36
2023/11/01 00:43:03;;;;;;;13.05;3.47;;;12.00;99.90;;;;;;5031962;28;20484;-35
2023/11/01 00:45:29;;;;;;;;;;;12.00;99.90;;;;;;5034790;28;20022;-37
2023/11/01 00:47:54;;;;;;;3.40;2.90;;;12.10;99.90;;;;;;5035712;28;19905;-37
2023/11/01 00:50:20;;;;;;;9.07;2.58;;;12.00;99.90;;;;;;5050960;28;20491;-38
2023/11/01 00:52:46;;;;;;;6.72;3.28;;;12.00;99.90;;;;;;5035598;28;20034;-36
2023/11/01 00:55:11;;;;;;;13.23;3.15;;;12.10;99.90;;;;;;5035455;28;20025;-38
2023/11/01 00:57:37;;;;;;;8.38;3.30;;;12.00;99.90;;;;;;5035565;28;20440;-38
2023/11/01 01:00:06;;;;;;;25.77;4.22;;;12.00;99.90;;;;;;5035483;28;20028;-37
2023/11/01 01:02:31;;;;;;;12.60;3.65;;;12.00;99.90;;;;;;5035365;28;20029;-37
2023/11/01 01:04:57;;;;;;;5.50;2.90;;;12.00;99.90;;;;;;5035385;28;20037;-40
2023/11/01 01:07:23;;;;;;;11.40;3.50;;;12.00;99.90;;;;;;5035341;28;20099;-37
2023/11/01 01:09:49;;;;;;;9.43;3.40;;;11.90;99.90;;;;;;5035281;28;20487;-38
2023/11/01 01:12:14;;;;;;;15.63;3.72;;;12.00;99.90;;;;;;5035072;28;20045;-38
2023/11/01 01:14:40;;;;;;;10.23;3.65;;;11.90;99.90;;;;;;5035208;28;20041;-38
2023/11/01 01:17:06;;;;;;;13.48;4.20;;;11.90;99.90;;;;;;5035199;28;20445;-37
2023/11/01 01:19:31;;;;;;;12.52;3.63;;;12.00;99.90;;;;;;5035076;28;20018;-38
2023/11/01 01:21:57;;;;;;;7.60;3.95;;;11.90;99.90;;;;;;5035106;28;20026;-37
2023/11/01 01:24:22;;;;;;;12.63;4.55;;;12.00;99.90;;;;;;5035029;28;20084;-39
2023/11/01 01:26:48;;;;;;;5.78;3.50;;;11.90;99.90;;;;;;5035049;28;20029;-38
2023/11/01 01:29:14;;;;;;;8.00;3.65;;;12.00;99.90;;;;;;5034941;28;20465;-36
2023/11/01 01:31:39;;;;;;;19.20;4.90;;;12.00;99.90;;;;;;5035126;28;20426;-37
2023/11/01 01:34:05;;;;;;;7.68;3.15;;;12.10;99.90;;;;;;5034874;28;20014;-37
2023/11/01 01:36:33;;;;;;;11.00;4.43;;;12.10;99.90;;;;;;5034730;28;20474;-38
2023/11/01 01:38:58;;;;;;;11.57;5.45;;;12.00;99.90;;;;;;5034722;28;20030;-38
2023/11/01 01:41:24;;;;;;;6.80;4.13;;;12.00;99.90;;;;;;5034530;28;20152;-37
2023/11/01 01:43:49;;;;;;;9.30;3.85;;;12.00;99.90;;;;;;5050009;28;20111;-37
2023/11/01 01:46:17;;;;;;;13.88;3.90;;;12.00;99.90;;;;;;5034886;28;20465;-36
2023/11/01 01:48:44;;;;;;;13.83;3.87;;;12.10;99.90;;;;;;5034854;28;20017;-38
2023/11/01 01:51:12;;;;;;;5.50;3.63;;;12.10;99.90;;;;;;5034506;28;20628;-37
2023/11/01 01:53:40;;;;;;;12.73;3.85;;;12.10;99.90;;;;;;5034324;28;20493;-38
2023/11/01 01:56:09;;;;;;;13.95;3.88;;;12.10;99.90;;;;;;5034326;28;20527;-38
2023/11/01 01:58:40;;;;;;;11.52;3.70;;;12.00;99.90;;;;;;5034382;28;20474;-38
2023/11/01 02:01:06;;;;;;;10.90;3.45;;;12.10;99.90;;;;;;5034374;28;20022;-37
2023/11/01 02:03:32;;;;;;;13.60;3.40;;;12.10;99.90;;;;;;5049286;28;20375;-37
2023/11/01 02:05:57;;;;;;;11.25;4.07;;;12.10;99.90;;;;;;5033101;28;20041;-38
2023/11/01 02:08:25;;;;;;;15.70;3.03;;;12.00;99.90;;;;;;5033767;28;20032;-36
2023/11/01 02:10:51;;;;;;;8.02;3.35;;;12.10;99.90;;;;;;5049446;28;20026;-39
2023/11/01 02:13:17;;;;;;;4.88;3.47;;;12.10;99.90;;;;;;5034010;28;20029;-37
2023/11/01 02:15:45;;;;;;;10.65;3.28;;;12.10;99.90;;;;;;5034116;28;20385;-36
2023/11/01 02:18:11;;;;;;;3.58;2.97;;;12.10;99.90;;;;;;5034136;28;20489;-37
2023/11/01 02:20:39;;;;;;;3.63;2.50;;;12.10;99.90;;;;;;5033924;28;20171;-38
2023/11/01 02:23:11;;;;;;;7.03;2.42;;;12.10;99.90;;;;;;5034018;28;20165;-36
2023/11/01 02:25:55;;;;;;;7.60;2.45;;;12.00;99.90;;;;;;5016246;28;20025;-37
2023/11/01 02:28:21;;;;;;;13.10;3.03;;;12.00;99.90;;;;;;5019566;28;20444;-38
2023/11/01 02:30:47;;;;;;;4.47;2.53;;;12.10;99.90;;;;;;5030884;28;20035;-34
2023/11/01 02:33:13;;;;;;;9.43;2.60;;;12.00;99.90;;;;;;5053492;28;20033;-36
2023/11/01 02:35:39;;;;;;;13.45;2.22;;;12.00;99.90;;;;;;5053349;28;20017;-38
2023/11/01 02:38:05;;;;;;;12.55;3.17;;;12.00;99.90;;;;;;5052912;28;20025;-35
2023/11/01 02:40:30;;;;;;;10.60;2.10;;;12.00;99.90;;;;;;5033604;28;20402;-35
2023/11/01 02:42:56;;;;;;;11.63;2.60;;;12.00;99.90;;;;;;5051495;28;20045;-39
2023/11/01 02:45:22;;;;;;;4.72;2.63;;;12.00;99.90;;;;;;5051692;28;20029;-37
2023/11/01 02:47:51;;;;;;;5.88;2.42;;;12.10;99.90;;;;;;5052992;28;20042;-36
2023/11/01 02:50:19;;;;;;;7.97;2.53;;;12.10;99.90;;;;;;5053292;28;20416;-37
2023/11/01 02:52:46;;;;;;;7.80;2.58;;;12.10;99.90;;;;;;5049669;28;20033;-36
2023/11/01 02:55:15;;;;;;;7.43;3.10;;;12.10;99.90;;;;;;5053032;28;20515;-36
2023/11/01 02:57:42;;;;;;;6.53;2.60;;;12.10;99.90;;;;;;5051640;28;20100;-35
2023/11/01 03:00:20;;;;;;;5.30;2.40;;;12.10;99.90;;;;;;5043386;28;20042;-36
2023/11/01 03:02:47;;;;;;;8.75;2.20;;;12.10;99.90;;;;;;5044691;28;20060;-35
2023/11/01 03:05:17;;;;;;;4.18;2.45;;;12.20;99.90;;;;;;5052742;28;20381;-35
2023/11/01 03:07:43;;;;;;;8.40;2.30;;;12.20;99.90;;;;;;5052063;28;20024;-37
2023/11/01 03:10:09;;;;;;;9.35;2.78;;;12.20;99.90;;;;;;5053243;28;20025;-36
2023/11/01 03:12:39;;;;;;;7.10;2.50;;;12.20;99.90;;;;;;5016752;28;20025;-36
2023/11/01 03:15:07;;;;;;;6.03;2.28;;;12.20;99.90;;;;;;5050981;28;20086;-36
2023/11/01 03:17:34;;;;;;;4.32;1.83;;;12.10;99.90;;;;;;5051965;28;20057;-36
2023/11/01 03:20:00;;;;;;;10.98;2.65;;;12.20;99.90;;;;;;5051085;28;20017;-35
2023/11/01 03:22:26;;;;;;;6.82;2.33;;;12.20;99.90;;;;;;5034216;28;20499;-35
2023/11/01 03:24:52;;;;;;;6.25;2.70;;;12.20;99.90;;;;;;5052077;28;20025;-35
2023/11/01 03:27:17;;;;;;;9.63;2.30;;;12.20;99.90;;;;;;5034177;28;20029;-40
2023/11/01 03:29:43;;;;;;;7.93;2.70;;;12.20;99.90;;;;;;5051185;28;20028;-36
2023/11/01 03:32:08;;;;;;;6.25;3.05;;;12.20;99.90;;;;;;5050428;28;20083;-35
2023/11/01 03:34:34;;;;;;;4.15;2.70;;;12.30;99.90;;;;;;5052564;28;20469;-35
2023/11/01 03:37:00;;;;;;;7.57;2.65;;;12.30;99.90;;;;;;5047522;28;20029;-39
2023/11/01 03:39:26;;;;;;;5.32;2.35;;;12.20;99.90;;;;;;5032794;28;20072;-35
2023/11/01 03:41:52;;;;;;;5.78;2.50;;;12.30;99.90;;;;;;5050995;28;20033;-36
2023/11/01 03:44:18;;;;;;;5.45;2.70;;;12.20;99.90;;;;;;5049478;28;20420;-36
2023/11/01 03:46:44;;;;;;;6.57;1.83;;;12.20;99.90;;;;;;5049708;28;20021;-35
2023/11/01 03:49:09;;;;;;;10.00;2.80;;;12.30;99.90;;;;;;5052424;28;20497;-37
2023/11/01 03:51:35;;;;;;;8.45;2.60;;;12.30;99.90;;;;;;5044864;28;20112;-37
2023/11/01 03:54:00;;;;;;;8.88;2.88;;;12.30;99.90;;;;;;5052473;28;20067;-35
2023/11/01 03:56:26;;;;;;;10.80;3.95;;;12.30;99.90;;;;;;5051820;28;20373;-36
2023/11/01 03:58:52;;;;;;;8.65;3.10;;;12.20;99.90;;;;;;5051702;28;20029;-35
2023/11/01 04:01:17;;;;;;;4.78;2.45;;;12.20;99.90;;;;;;5050938;28;20036;-35
2023/11/01 04:03:43;;;;;;;8.98;3.08;;;12.30;99.90;;;;;;5033946;28;20025;-38
2023/11/01 04:06:09;;;;;;;13.40;2.90;;;12.30;99.90;;;;;;5033907;28;20067;-38
2023/11/01 04:08:37;;;;;;;5.40;2.38;;;12.30;99.90;;;;;;5051986;28;20408;-38
2023/11/01 04:11:04;;;;;;;10.85;3.83;;;12.30;99.90;;;;;;5050982;28;20157;-35
2023/11/01 04:13:31;;;;;;;6.03;2.72;;;12.30;99.90;;;;;;5048286;28;20041;-35
2023/11/01 04:15:57;;;;;;;3.83;2.30;;;12.30;99.90;;;;;;5046481;28;20048;-34
2023/11/01 04:18:24;;;;;;;8.90;2.67;;;12.30;99.90;;;;;;5051382;28;20021;-35
2023/11/01 04:20:50;;;;;;;3.13;2.70;;;12.30;99.90;;;;;;5054541;28;20499;-35
2023/11/01 04:23:16;;;;;;;8.50;3.22;;;12.30;99.90;;;;;;5055688;28;20029;-35
2023/11/01 04:25:41;;;;;;;6.18;2.80;;;12.30;99.90;;;;;;5054763;28;20377;-35
2023/11/01 04:28:08;;;;;;;4.05;2.90;;;12.40;99.90;;;;;;5055466;28;20027;-36
2023/11/01 04:30:38;;;;;;;5.68;2.30;;;12.40;99.90;;;;;;5054509;28;20061;-35
2023/11/01 04:33:07;;;;;;;5.38;2.60;;;12.40;99.90;;;;;;5055264;28;20523;-34
2023/11/01 04:35:34;;;;;;;3.13;2.55;;;12.40;99.90;;;;;;5054662;28;20029;-36
2023/11/01 04:38:01;;;;;;;3.15;2.80;;;12.30;99.90;;;;;;5042907;28;20526;-36
2023/11/01 04:40:26;;;;;;;3.58;2.90;;;12.40;99.90;;;;;;5051906;28;20017;-35
2023/11/01 04:42:52;;;;;;;5.85;3.10;;;12.40;99.90;;;;;;5054661;28;20037;-38
2023/11/01 04:45:18;;;;;;;3.80;3.08;;;12.40;99.90;;;;;;5055911;28;20096;-44
2023/11/01 04:47:44;;;;;;;3.83;2.90;;;12.40;99.90;;;;;;5054632;28;20040;-35
2023/11/01 04:50:11;;;;;;;3.25;2.63;;;12.40;99.90;;;;;;5054521;28;20166;-36
2023/11/01 04:52:37;;;;;;;7.68;3.60;;;12.40;99.90;;;;;;5055074;28;20033;-36
2023/11/01 04:55:06;;;;;;;7.13;3.30;;;12.40;99.90;;;;;;5054938;28;20067;-35
2023/11/01 04:57:32;;;;;;;4.18;3.08;;;12.30;99.90;;;;;;5054419;28;20473;-35
2023/11/01 04:59:58;;;;;;;3.55;3.05;;;12.40;99.90;;;;;;5054428;28;20037;-35
2023/11/01 05:02:24;;;;;;;7.28;3.40;;;12.40;99.90;;;;;;5054223;28;20530;-34
2023/11/01 05:04:49;;;;;;;4.07;3.67;;;12.40;99.90;;;;;;5037444;28;20079;-35
2023/11/01 05:07:15;;;;;;;3.80;2.90;;;12.40;99.90;;;;;;5036457;28;20561;-35
2023/11/01 05:09:41;;;;;;;4.95;3.10;;;12.40;99.90;;;;;;5053883;28;20493;-35
2023/11/01 05:12:06;;;;;;;4.30;3.20;;;12.40;99.90;;;;;;5054057;28;20036;-34
2023/11/01 05:14:32;;;;;;;3.65;3.25;;;12.40;99.90;;;;;;5053566;28;20466;-36
2023/11/01 05:16:58;;;;;;;5.45;3.30;;;12.40;99.90;;;;;;5054586;28;20075;-38
2023/11/01 05:19:23;;;;;;;5.05;3.50;;;12.50;99.90;;;;;;5053993;28;20025;-35
2023/11/01 05:21:49;;;;;;;5.15;3.97;;;12.50;99.90;;;;;;5053163;28;20472;-35
2023/11/01 05:24:15;;;;;;;5.47;3.53;;;12.50;99.90;;;;;;5054339;28;20480;-40
2023/11/01 05:26:42;;;;;;;4.50;3.85;;;12.50;99.90;;;;;;5054160;28;20036;-51
2023/11/01 05:29:09;;;;;;;4.10;3.63;;;12.50;99.90;;;;;;5054639;28;20064;-50
2023/11/01 05:31:35;;;;;;;5.10;3.60;;;12.60;99.90;;;;;;5053665;28;20053;-51
2023/11/01 05:34:02;;;;;;;5.70;3.95;;;12.60;99.90;;;;;;5053406;28;20489;-51
2023/11/01 05:36:28;;;;;;;8.27;4.57;;;12.60;99.90;;;;;;5050965;28;20201;-50
2023/11/01 05:38:54;;;;;;;5.18;4.28;;;12.60;99.90;;;;;;5048858;28;20110;-52
2023/11/01 05:41:20;;;;;;;7.65;4.60;;;12.70;99.90;;;;;;5035836;28;20068;-55
2023/11/01 05:43:46;;;;;;;10.18;5.10;;;12.70;99.90;;;;;;5054829;28;20048;-49
2023/11/01 05:46:12;;;;;;;9.18;5.28;;;12.70;99.90;;;;;;5052531;28;20041;-54
2023/11/01 05:48:38;;;;;;;6.82;4.68;;;12.70;99.90;;;;;;5054827;28;20083;-52
2023/11/01 05:51:04;;;;;;;14.10;5.30;;;12.70;99.90;;;;;;5052850;28;20021;-51
2023/11/01 05:53:34;;;;;;;8.57;5.40;;;12.80;99.90;;;;;;5051942;28;20033;-50
2023/11/01 05:56:00;;;;;;;11.05;4.95;;;12.80;99.90;;;;;;5053226;28;20029;-51
2023/11/01 05:58:27;;;;;;;10.38;5.57;;;12.80;99.90;;;;;;5053711;28;20056;-51
2023/11/01 06:00:53;;;;;;;12.20;5.25;;;12.90;99.90;;;;;;5053848;28;20358;-54
2023/11/01 06:03:19;;;;;;;7.82;4.75;;;12.90;99.90;;;;;;5053061;28;20028;-54
2023/11/01 06:05:46;;;;;;;10.88;5.35;;;12.90;99.90;;;;;;5052518;28;20473;-36
2023/11/01 06:08:12;;;;;;;11.80;5.18;;;12.90;99.90;;;;;;5053628;28;20128;-36
2023/11/01 06:10:38;;;;;;;8.60;5.47;;;12.90;99.90;;;;;;5054356;28;20033;-38
2023/11/01 06:13:08;;;;;;;17.20;5.55;;;12.90;99.90;;;;;;5053213;28;20025;-37
2023/11/01 06:15:37;;;;;;;9.45;4.93;;;12.90;99.90;;;;;;5052520;28;20540;-36
2023/11/01 06:18:05;;;;;;;7.85;4.55;;;12.90;99.90;;;;;;5053643;28;20363;-34
2023/11/01 06:20:35;;;;;;;19.13;5.63;;;12.90;99.90;;;;;;5053150;28;20036;-35
2023/11/01 06:23:01;;;;;;;13.75;5.15;;;13.00;99.90;;;;;;5052738;28;20029;-37
2023/11/01 06:25:27;;;;;;;13.15;4.70;;;13.00;99.90;;;;;;5053437;28;20485;-36
2023/11/01 06:27:52;;;;;;;14.63;4.25;;;13.00;99.90;;;;;;5051914;28;20040;-38
2023/11/01 06:30:18;;;;;;;10.00;4.45;;;13.00;99.90;;;;;;5053667;28;20048;-37
2023/11/01 06:32:44;;;;;;;6.45;3.83;;;13.00;99.90;;;;;;5048439;28;20059;-36
2023/11/01 06:35:10;;;;;;;9.95;4.13;;;13.00;99.90;;;;;;5052345;28;20028;-37
2023/11/01 06:37:35;;;;;;;12.23;3.92;;;13.00;99.90;;;;;;5053047;28;20101;-37
2023/11/01 06:40:02;;;;;;;5.13;3.42;;;13.00;99.90;;;;;;5034253;28;20389;-42
2023/11/01 06:42:28;;;;;;;9.80;3.58;;;13.10;99.90;;;;;;5052060;28;20049;-41
2023/11/01 06:44:54;;;;;;;11.88;3.75;;;13.10;99.90;;;;;;5053355;28;20029;-37
2023/11/01 06:47:20;;;;;;;12.23;3.30;;;13.10;99.90;;;;;;5052459;28;20033;-37
2023/11/01 06:49:47;;;;;;;11.80;3.83;;;13.10;99.90;;;;;;5052525;28;20029;-37
2023/11/01 06:52:13;;;;;;;6.78;3.55;;;13.20;99.90;;;;;;5051969;28;20070;-38
2023/11/01 06:54:40;;;;;;;10.07;4.68;;;13.10;99.90;;;;;;5051669;28;20029;-37
2023/11/01 06:57:06;;;;;;;11.50;3.53;;;13.20;99.90;;;;;;5052800;28;20466;-37
2023/11/01 06:59:32;;;;;;;11.00;2.88;;;13.10;99.90;;;;;;5043401;28;20033;-38
2023/11/01 07:01:58;;;;;;;11.85;3.33;;;13.20;99.90;;;;;;5047880;28;20377;-38
2023/11/01 07:04:23;;;;;;;9.93;2.85;;;13.10;99.90;;;;;;5051942;28;20519;-37
2023/11/01 07:06:49;;;;;;;9.63;3.25;;;13.20;99.90;;;;;;5053076;28;20059;-37
2023/11/01 07:09:15;;;;;;;6.45;3.05;;;13.20;99.90;;;;;;5051863;28;20114;-37
2023/11/01 07:11:40;;;;;;;14.43;3.92;;;13.20;99.90;;;;;;5051880;28;20108;-38
2023/11/01 07:14:06;;;;;;;10.02;3.42;;;13.20;99.90;;;;;;5051829;28;20028;-37
2023/11/01 07:16:34;;;;;;;15.20;3.03;;;13.20;99.90;;;;;;5051651;28;20032;-37
2023/11/01 07:18:59;;;;;;;9.65;2.63;;;13.20;99.90;;;;;;5052510;28;20103;-38
2023/11/01 07:21:26;;;;;;;13.07;2.75;;;13.20;99.90;;;;;;5051986;28;20103;-38
2023/11/01 07:23:51;;;;;;;4.80;2.65;;;13.20;99.90;;;;;;5051905;28;20552;-39
2023/11/01 07:26:17;;;;;;;6.85;2.72;;;13.20;99.90;;;;;;5051799;28;20148;-37
2023/11/01 07:28:45;;;;;;;14.50;2.47;;;13.20;99.90;;;;;;5052744;28;20036;-37
2023/11/01 07:31:13;;;;;;;23.48;3.85;;;13.20;99.90;;;;;;5049010;28;20021;-40
2023/11/01 07:33:39;;;;;;;8.20;2.30;;;13.20;99.90;;;;;;5041608;28;20025;-37
2023/11/01 07:36:05;;;;;;;8.82;2.65;;;13.20;99.90;;;;;;5050240;28;20064;-38
2023/11/01 07:38:31;;;;;;;11.57;3.05;;;13.20;99.90;;;;;;5035767;28;20537;-38
2023/11/01 07:40:56;;;;;;;11.13;2.70;;;13.30;99.90;;;;;;5047208;28;20052;-37
2023/11/01 07:43:22;;;;;;;7.75;1.85;;;13.20;99.90;;;;;;5052323;28;20084;-37
2023/11/01 07:45:49;;;;;;;4.18;2.40;;;13.30;99.90;;;;;;5033540;28;20029;-39
2023/11/01 07:48:15;;;;;;;8.05;2.00;;;13.30;99.90;;;;;;5052612;28;20021;-40
2023/11/01 07:50:42;;;;;;;12.65;2.63;;;13.30;99.90;;;;;;5050383;28;20032;-39
2023/11/01 07:53:09;;;;;;;13.05;2.17;;;13.30;99.90;;;;;;5052815;28;20033;-37
2023/11/01 07:55:34;;;;;;;10.30;2.90;;;13.30;99.90;;;;;;5038303;28;20441;-39
2023/11/01 07:58:00;;;;;;;13.73;2.22;;;13.40;99.90;;;;;;5056418;28;20052;-38
2023/11/01 08:00:26;;;;;;;10.90;2.53;;;13.40;99.90;;;;;;5054775;28;20029;-38
2023/11/01 08:02:53;;;;;;;5.03;2.10;;;13.40;99.90;;;;;;5051396;28;20029;-38
2023/11/01 08:05:22;;;;;;;10.18;2.00;;;13.40;99.90;;;;;;5042963;28;20381;-38
2023/11/01 08:07:48;;;;;;;9.23;2.03;;;13.40;99.90;;;;;;5054427;28;20048;-38
2023/11/01 08:10:14;;;;;;;18.58;2.97;;;13.30;99.90;;;;;;5055563;28;20033;-38
2023/11/01 08:12:40;;;;;;;12.38;1.92;;;13.40;99.90;;;;;;5056519;28;20488;-37
2023/11/01 08:15:06;;;;;;;4.80;1.58;;;13.40;99.90;;;;;;5038086;28;20024;-40
2023/11/01 08:17:32;;;;;;;8.02;1.88;;;13.40;99.90;;;;;;5054568;28;20028;-38
2023/11/01 08:19:58;;;;;;;13.13;2.13;;;13.40;99.90;;;;;;5037833;28;20021;-38
2023/11/01 08:22:25;;;;;;;12.73;1.52;;;13.50;99.90;;;;;;5053737;28;20060;-50
2023/11/01 08:24:51;;;;;;;6.13;2.28;;;13.50;99.90;;;;;;5056182;28;20488;-35
2023/11/01 08:27:17;;;;;;;13.13;2.47;;;13.50;99.90;;;;;;5055786;28;20033;-36
2023/11/01 08:29:43;;;;;;;7.95;1.73;;;13.50;99.90;;;;;;5055060;28;20028;-42
2023/11/01 08:32:11;;;;;;;10.23;1.75;;;13.50;99.90;;;;;;5055028;28;20071;-38
2023/11/01 08:34:37;;;;;;;4.45;1.75;;;13.50;99.90;;;;;;5053089;28;20110;-35
2023/11/01 08:37:04;;;;;;;11.73;1.77;;;13.60;99.90;;;;;;5055160;28;20433;-37
2023/11/01 08:39:30;;;;;;;13.15;2.17;;;13.70;99.90;;;;;;5055444;28;20472;-38
2023/11/01 08:41:58;;;;;;;6.63;1.50;;;13.70;99.90;;;;;;5055076;28;20094;-38
2023/11/01 08:44:23;;;;;;;;;;;13.60;99.90;;;;;;5056124;28;20025;-38
2023/11/01 08:46:49;;;;;;;4.15;1.83;;;13.60;99.90;;;;;;5055273;28;20338;-36
2023/11/01 08:49:15;;;;;;;10.15;2.22;;;13.60;99.90;;;;;;5055228;28;20025;-35
2023/11/01 08:51:41;;;;;;;11.05;1.80;;;13.70;99.90;;;;;;5054153;28;20079;-41
2023/11/01 08:54:09;;;;;;;6.30;1.42;;;13.70;99.90;;;;;;5054981;28;20025;-36
2023/11/01 08:56:36;;;;;;;14.85;2.03;;;13.70;99.90;;;;;;5055541;28;20448;-35
2023/11/01 08:59:04;;;;;;;7.05;1.90;;;13.70;99.90;;;;;;5052422;28;20542;-35
2023/11/01 09:01:30;;;;;;;14.00;1.77;;;13.70;99.90;;;;;;5053954;28;20075;-36
2023/11/01 09:03:56;;;;;;;13.45;2.25;;;13.70;99.90;;;;;;5055461;28;20072;-36
2023/11/01 09:06:22;;;;;;;12.77;2.00;;;13.80;99.90;;;;;;5050717;28;20029;-36
2023/11/01 09:08:48;;;;;;;4.47;1.95;;;13.70;99.90;;;;;;5054796;28;20101;-35
2023/11/01 09:11:13;;;;;;;6.18;2.03;;;13.80;99.90;;;;;;5055144;28;20025;-36
2023/11/01 09:13:39;;;;;;;10.63;1.33;;;13.90;99.90;;;;;;5055074;28;20036;-36
2023/11/01 09:16:05;;;;;;;15.40;1.98;;;13.90;99.90;;;;;;5048258;28;20017;-36
2023/11/01 09:18:31;;;;;;;8.77;2.00;;;13.90;99.90;;;;;;5055258;28;20485;-36
2023/11/01 09:20:57;;;;;;;7.97;1.42;;;13.90;99.90;;;;;;5047431;28;20053;-35
2023/11/01 09:23:23;;;;;;;8.52;1.42;;;13.90;99.90;;;;;;5029930;28;20033;-35
2023/11/01 09:25:49;;;;;;;8.20;2.20;;;14.00;99.90;;;;;;5045640;28;20388;-35
2023/11/01 09:28:15;;;;;;;5.00;1.50;;;14.00;99.90;;;;;;5050208;28;20025;-35
2023/11/01 09:30:41;;;;;;;7.72;1.38;;;14.00;99.90;;;;;;5047240;28;20033;-35
2023/11/01 09:33:07;;;;;;;11.23;2.00;;;14.00;99.90;;;;;;5051691;28;20108;-35
2023/11/01 09:35:32;;;;;;;14.55;2.13;;;14.00;99.90;;;;;;5027043;28;20032;-36
2023/11/01 09:37:58;;;;;;;4.78;1.83;;;14.00;99.90;;;;;;5053064;28;20031;-35
2023/11/01 09:40:24;;;;;;;7.45;1.50;;;14.00;99.90;;;;;;5052168;28;20029;-35
2023/11/01 09:42:50;;;;;;;13.73;1.65;;;14.10;99.90;;;;;;5053755;28;20424;-35
2023/11/01 09:45:18;;;;;;;12.55;1.80;;;14.10;99.90;;;;;;5045484;28;20033;-36
2023/11/01 09:47:44;;;;;;;9.63;2.13;;;14.20;99.90;;;;;;5053992;28;20099;-35
2023/11/01 09:50:12;;;;;;;9.18;1.95;;;14.20;99.90;;;;;;5050268;28;20112;-37
2023/11/01 09:52:39;;;;;;;3.00;1.20;;;14.30;99.90;;;;;;5053941;28;20507;-35
2023/11/01 09:55:05;;;;;;;6.00;1.75;;;14.30;99.90;;;;;;5054260;28;20083;-35
2023/11/01 09:57:34;;;;;;;3.20;1.30;;;14.40;99.90;;;;;;5022997;28;20033;-36
2023/11/01 10:00:03;;;;;;;9.77;1.65;;;14.40;99.90;;;;;;5051438;28;20067;-35
2023/11/01 10:02:29;;;;;;;8.40;1.98;;;14.40;99.90;;;;;;5051885;28;20029;-36
2023/11/01 10:04:55;;;;;;;7.78;1.80;;;14.40;99.90;;;;;;5051162;28;20072;-34
2023/11/01 10:07:20;;;;;;;4.13;1.30;;;14.40;99.90;;;;;;5050899;28;20065;-34
2023/11/01 10:09:47;;;;;;;8.35;2.15;;;14.30;99.90;;;;;;5046948;28;20442;-36
2023/11/01 10:12:14;;;;;;;6.07;1.83;;;14.30;99.90;;;;;;5051525;28;20028;-36
2023/11/01 10:14:40;;;;;;;4.85;1.38;;;14.40;99.90;;;;;;5052498;28;20550;-35
2023/11/01 10:17:05;;;;;;;11.90;2.33;;;14.50;99.90;;;;;;5053456;28;20100;-36
2023/11/01 10:19:32;;;;;;;17.05;1.77;;;14.50;99.90;;;;;;5035787;28;20164;-35
2023/11/01 10:21:57;;;;;;;10.20;1.50;;;14.50;99.90;;;;;;5053870;28;20029;-36
2023/11/01 10:24:25;;;;;;;8.32;1.42;;;14.50;99.90;;;;;;5052913;28;20481;-35
2023/11/01 10:26:55;;;;;;;4.32;1.27;;;14.50;99.90;;;;;;5053711;28;20021;-36
2023/11/01 10:29:26;;;;;;;10.40;1.15;;;14.50;99.90;;;;;;5048997;28;20505;-36
2023/11/01 10:31:57;;;;;;;6.70;1.35;;;14.50;99.90;;;;;;5053825;28;20084;-35
2023/11/01 10:34:28;;;;;;;4.53;0.82;;;14.50;99.90;;;;;;5051199;28;20020;-40
2023/11/01 10:36:54;;;;;;;3.92;1.33;;;14.50;99.90;;;;;;5032401;28;20450;-34
2023/11/01 10:39:21;;;;;;;10.52;1.48;;;14.50;99.90;;;;;;5033915;28;20022;-36
2023/11/01 10:41:49;;;;;;;4.25;0.90;;;14.60;99.90;;;;;;5041829;28;20021;-36
2023/11/01 10:44:15;;;;;;;4.00;0.98;;;14.60;99.90;;;;;;5034069;28;20362;-36
2023/11/01 10:46:42;;;;;;;10.60;1.50;;;14.60;99.90;;;;;;5045106;28;20473;-35
2023/11/01 10:49:11;;;;;;;8.85;1.77;;;14.70;99.90;;;;;;5048232;28;20543;-36
2023/11/01 10:51:38;;;;;;;3.90;0.88;;;14.70;99.90;;;;;;5051322;28;20560;-36
2023/11/01 10:54:04;;;;;;;4.88;1.80;;;14.70;99.90;;;;;;5039612;28;20486;-36
2023/11/01 10:56:30;;;;;;;8.27;1.88;;;14.70;99.90;;;;;;5050483;28;20529;-36
2023/11/01 10:59:03;;;;;;;12.32;2.17;;;14.70;99.90;;;;;;5048633;28;20109;-35
2023/11/01 11:01:38;;;;;;;5.60;1.70;;;14.70;99.90;;;;;;5033560;28;20053;-36
2023/11/01 11:04:22;;;;;;;7.55;1.33;;;14.60;99.90;;;;;;5048009;28;20017;-36
2023/11/01 11:07:19;;;;;;;9.88;1.88;;;14.60;99.90;;;;;;5052088;28;20029;-35
2023/11/01 11:09:45;;;;;;;6.88;2.53;;;14.60;99.90;;;;;;5005190;28;20385;-36
2023/11/01 11:12:21;;;;;;;5.15;1.23;;;14.60;99.90;;;;;;5051721;28;20036;-35
2023/11/01 11:14:51;;;;;;;3.05;0.88;;;14.60;99.90;;;;;;5051965;28;20074;-36
2023/11/01 11:17:22;;;;;;;4.90;1.45;;;14.70;99.90;;;;;;5051494;28;20056;-40
2023/11/01 11:20:05;;;;;;;9.32;1.70;;;14.70;99.90;;;;;;5047582;28;20511;-36
2023/11/01 11:23:02;;;;;;;3.67;1.20;;;14.70;99.90;;;;;;5051591;28;20516;-38
2023/11/01 11:25:44;;;;;;;8.20;1.27;;;14.70;99.90;;;;;;5050282;28;20485;-37
2023/11/01 11:28:22;;;;;;;3.45;1.20;;;14.70;99.90;;;;;;5052265;28;20382;-40
2023/11/01 11:31:03;;;;;;;4.20;1.15;;;14.60;99.90;;;;;;5045217;28;20029;-37
2023/11/01 11:33:37;;;;;;;3.88;0.98;;;14.70;99.90;;;;;;5032437;28;20374;-37
2023/11/01 11:36:25;;;;;;;2.20;1.08;;;14.70;99.90;;;;;;5036425;28;20473;-38
2023/11/01 11:38:55;;;;;;;;;;;14.80;99.90;;;;;;5050850;28;20025;-37
2023/11/01 11:41:22;;;;;;;5.22;0.90;;;14.80;99.90;;;;;;5050220;28;19927;-38
2023/11/01 11:44:13;;;;;;;9.20;1.83;;;14.90;99.90;;;;;;5052389;28;20051;-38
2023/11/01 11:46:40;;;;;;;2.92;1.10;;;14.80;99.90;;;;;;5042366;28;20381;-37
2023/11/01 11:49:08;;;;;;;14.68;1.85;;;14.80;99.90;;;;;;5047960;28;20036;-36
2023/11/01 11:51:35;;;;;;;2.15;1.00;;;14.90;99.90;;;;;;5033438;28;20030;-36
2023/11/01 11:54:11;;;;;;;10.48;1.20;;;14.90;99.90;;;;;;5038099;28;20040;-39
2023/11/01 11:56:38;;;;;;;8.15;1.10;;;14.90;99.90;;;;;;5052437;28;20108;-39
2023/11/01 11:59:03;;;;;;;5.22;0.80;;;15.00;99.90;;;;;;5052314;28;20104;-36
2023/11/01 12:01:29;;;;;;;5.28;1.10;;;15.10;99.90;;;;;;5052495;28;20056;-36
2023/11/01 12:03:58;;;;;;;2.05;0.60;;;15.10;99.90;;;;;;5052494;28;20029;-38
2023/11/01 12:06:39;;;;;;;4.45;1.50;;;15.10;99.90;;;;;;5052281;28;20504;-37
2023/11/01 12:09:12;;;;;;;5.15;0.70;;;15.20;99.90;;;;;;5052649;28;20025;-47
2023/11/01 12:11:37;;;;;;;10.23;1.23;;;15.20;99.90;;;;;;5052354;28;20040;-39
2023/11/01 12:14:03;;;;;;;7.00;0.90;;;15.30;99.90;;;;;;5052233;28;20455;-42
2023/11/01 12:16:29;;;;;;;2.90;0.80;;;15.20;99.90;;;;;;5052059;28;20505;-42
2023/11/01 12:19:13;;;;;;;4.25;1.23;;;15.20;99.90;;;;;;5034375;28;20520;-41
2023/11/01 12:21:40;;;;;;;6.45;1.60;;;15.20;99.90;;;;;;5052491;28;20053;-45
2023/11/01 12:24:08;;;;;;;6.07;1.05;;;15.30;99.90;;;;;;5052491;28;20052;-39
2023/11/01 12:26:34;;;;;;;6.13;1.40;;;15.30;99.90;;;;;;5032877;28;20400;-45
2023/11/01 12:29:04;;;;;;;8.35;1.27;;;15.40;99.90;;;;;;5052339;28;20025;-42
2023/11/01 12:31:30;;;;;;;6.38;1.10;;;15.40;99.90;;;;;;5052100;28;20041;-45
2023/11/01 12:34:13;;;;;;;6.30;1.02;;;15.40;99.90;;;;;;5051940;28;20048;-42
2023/11/01 12:36:40;;;;;;;3.80;0.88;;;15.40;99.90;;;;;;5050744;28;20021;-40
2023/11/01 12:39:09;;;;;;;4.88;0.95;;;15.40;99.90;;;;;;5032141;28;20026;-41
2023/11/01 12:41:35;;;;;;;16.17;1.38;;;15.40;99.90;;;;;;5034419;28;20080;-43
2023/11/01 12:44:01;;;;;;;11.60;1.15;;;15.40;99.90;;;;;;5052336;28;20423;-45